首页
METAR-TAF:

METAR-TAF

机场 :

达喀尔-约夫-利奥波德·塞达尔·桑戈尔国际机场

達喀爾, 塞内加尔

纬度: 14-44N, 经度: 017-30W, 海拔: 27米

当前天气观测

该预报发布于38分钟前的14:00 UTC
风速6节,风向南转南东
温度 25°C
湿度 89%
气压 1011 hPa
能見度: 1500
浮尘

METAR: GOOY 231400Z 16006KT 1500 DU NSC 25/23 Q1011

时间: 14:38 (14:38 UTC)

预报

该预报发布于3小时和8分钟前的11:30 UTC
预报有效从23日的 12点(UTC)到 24日的 18点(UTC)
风速7节,风向
能見度: 3000
浮尘

TAF: GOOY 231130Z 2312/2418 35007KT 3000 DU NSC

超过4000个机场的气象观测和天气预报(METAR&TAF报告)。

可查询的气象台以黄色和红色小点在地图上表示。

将鼠标移到小点上方,可查看气象台名称。

然后点击查看天气观测和预报。

如需切换地图:点击带黑十字的绿色按钮放大地图;点击带横线的绿色按钮缩小地图;或者点击绿色箭头查看邻近地区的地图。


METAR-TAF: